createdAt,value
2024-01-24T00:01:18.011Z,98223.19
2024-01-24T00:03:48.654Z,98225.94
2024-01-24T00:06:19.606Z,98229.81
2024-01-24T00:08:50.153Z,98232.72
2024-01-24T00:11:21.066Z,98245.22
2024-01-24T00:13:52.842Z,98266.53
2024-01-24T00:16:33.719Z,98264.75
2024-01-24T00:19:09.181Z,98258.91
2024-01-24T00:21:42.078Z,98279.97
2024-01-24T00:24:14.134Z,98285.50
2024-01-24T00:26:47.012Z,98292.72
2024-01-24T00:29:22.037Z,98292.72
2024-01-24T00:31:55.362Z,98289.38
2024-01-24T00:34:26.451Z,98311.41
2024-01-24T00:36:57.698Z,98305.44
2024-01-24T00:39:30.196Z,98333.44
2024-01-24T00:42:01.291Z,98348.81
2024-01-24T00:44:32.082Z,98349.50
2024-01-24T00:47:06.021Z,98340.91
2024-01-24T00:49:36.494Z,98346.16
2024-01-24T00:52:07.703Z,98339.38
2024-01-24T00:54:40.198Z,98327.16
2024-01-24T00:57:11.131Z,98335.19
2024-01-24T00:59:41.794Z,98326.84
2024-01-24T01:02:15.244Z,98322.97
2024-01-24T01:04:45.990Z,98329.22
2024-01-24T01:07:16.841Z,98352.22
2024-01-24T01:09:47.268Z,98342.66
2024-01-24T01:12:19.677Z,98349.84
2024-01-24T01:14:51.712Z,98383.09
2024-01-24T01:17:25.121Z,98358.44
2024-01-24T01:19:58.373Z,98373.41
2024-01-24T01:22:28.978Z,98364.81
2024-01-24T01:25:00.718Z,98358.59
2024-01-24T01:27:31.839Z,98352.03
2024-01-24T01:30:05.401Z,98372.72
2024-01-24T01:32:40.586Z,98386.84
2024-01-24T01:35:12.013Z,98394.72
2024-01-24T01:37:42.673Z,98395.81
2024-01-24T01:40:13.612Z,98398.59
2024-01-24T01:42:48.950Z,98427.44
2024-01-24T01:45:19.759Z,98411.63
2024-01-24T01:47:53.528Z,98400.38
2024-01-24T01:50:24.261Z,98398.25
2024-01-24T01:52:54.942Z,98403.97
2024-01-24T01:55:26.110Z,98409.97
2024-01-24T01:57:57.140Z,98420.50
2024-01-24T02:00:28.812Z,98424.94
2024-01-24T02:03:02.063Z,98439.06
2024-01-24T02:05:36.022Z,98451.38
2024-01-24T02:08:07.862Z,98450.56
2024-01-24T02:10:39.403Z,98457.38
2024-01-24T02:13:09.415Z,98480.34
2024-01-24T02:15:39.372Z,98475.06
2024-01-24T02:20:42.256Z,98485.88
2024-01-24T02:23:13.993Z,98493.66
2024-01-24T02:28:16.627Z,98531.34
2024-01-24T02:30:46.853Z,98539.75
2024-01-24T02:33:17.583Z,98541.06
2024-01-24T02:35:47.676Z,98555.91
2024-01-24T02:38:17.679Z,98563.81
2024-01-24T02:40:50.296Z,98570.16
2024-01-24T02:43:20.349Z,98564.88
2024-01-24T02:45:50.397Z,98572.28
2024-01-24T02:48:20.515Z,98586.75
2024-01-24T02:50:50.623Z,98571.09
2024-01-24T02:53:20.633Z,98577.22
2024-01-24T02:55:53.350Z,98587.00
2024-01-24T02:58:23.585Z,98599.22
2024-01-24T03:00:53.767Z,98601.00
2024-01-24T03:03:24.064Z,98608.69
2024-01-24T03:05:54.170Z,98610.59
2024-01-24T03:08:24.217Z,98614.41
2024-01-24T03:10:56.859Z,98635.00
2024-01-24T03:13:27.036Z,98646.38
2024-01-24T03:15:57.594Z,98629.75
2024-01-24T03:18:27.884Z,98654.16
2024-01-24T03:20:57.975Z,98670.81
2024-01-24T03:23:29.853Z,98671.16
2024-01-24T03:26:02.534Z,98700.63
2024-01-24T03:28:32.496Z,98706.81
2024-01-24T03:31:02.503Z,98689.38
2024-01-24T03:33:32.618Z,98710.44
2024-01-24T03:36:02.604Z,98742.88
2024-01-24T03:38:32.567Z,98733.91
2024-01-24T03:41:05.231Z,98727.78
2024-01-24T03:43:35.235Z,98728.66
2024-01-24T03:46:05.710Z,98755.69
2024-01-24T03:48:35.773Z,98736.66
2024-01-24T03:51:05.968Z,98781.06
2024-01-24T03:53:35.889Z,98802.25
2024-01-24T03:56:08.633Z,98815.56
2024-01-24T03:58:38.883Z,98811.09
2024-01-24T04:01:09.158Z,98807.53
2024-01-24T04:03:39.242Z,98812.78
2024-01-24T04:06:09.454Z,98833.72
2024-01-24T04:08:39.406Z,98849.53
2024-01-24T04:11:12.000Z,98864.63
2024-01-24T04:13:41.955Z,98872.66
2024-01-24T04:16:12.025Z,98894.56
2024-01-24T04:18:42.192Z,98918.28
2024-01-24T04:21:12.239Z,98930.59
2024-01-24T04:23:42.315Z,98935.97
2024-01-24T04:26:14.876Z,98938.59
2024-01-24T04:28:44.899Z,98977.03
2024-01-24T04:31:15.567Z,98979.44
2024-01-24T04:33:46.017Z,99001.59
2024-01-24T04:36:16.060Z,99009.63
2024-01-24T04:38:46.395Z,99012.25
2024-01-24T04:41:19.060Z,99035.94
2024-01-24T04:43:50.067Z,99043.72
2024-01-24T04:46:20.885Z,99058.69
2024-01-24T04:48:51.129Z,99074.63
2024-01-24T04:51:21.190Z,99097.47
2024-01-24T04:53:51.774Z,99100.97
2024-01-24T04:56:24.336Z,99102.75
2024-01-24T04:58:54.347Z,99093.28
2024-01-24T05:01:24.338Z,99094.97
2024-01-24T05:03:54.843Z,99121.31
2024-01-24T05:06:24.848Z,99141.53
2024-01-24T05:08:55.512Z,99150.28
2024-01-24T05:11:28.170Z,99148.50
2024-01-24T05:14:01.582Z,99148.50
2024-01-24T05:16:32.046Z,99162.47
2024-01-24T05:19:02.068Z,99197.69
2024-01-24T05:21:32.131Z,99205.59
2024-01-24T05:24:02.029Z,99204.84
2024-01-24T05:26:34.599Z,99216.00
2024-01-24T05:29:04.509Z,99242.66
2024-01-24T05:31:38.111Z,99251.31
2024-01-24T05:34:09.788Z,99277.94
2024-01-24T05:36:40.195Z,99285.66
2024-01-24T05:39:10.320Z,99271.53
2024-01-24T05:41:42.873Z,99274.19
2024-01-24T05:44:12.849Z,99305.66
2024-01-24T05:46:42.781Z,99313.47
2024-01-24T05:49:12.914Z,99323.06
2024-01-24T05:51:43.936Z,99335.28
2024-01-24T05:54:14.409Z,99324.22
2024-01-24T05:56:47.133Z,99346.03
2024-01-24T05:59:17.176Z,99372.91
2024-01-24T06:01:47.535Z,99385.16
2024-01-24T06:04:17.840Z,99399.06
2024-01-24T06:06:48.115Z,99418.03
2024-01-24T06:09:20.429Z,99420.34
2024-01-24T06:11:52.963Z,99421.84
2024-01-24T06:14:23.128Z,99426.28
2024-01-24T06:16:53.537Z,99448.09
2024-01-24T06:19:23.703Z,99453.03
2024-01-24T06:21:53.886Z,99462.53
2024-01-24T06:24:24.411Z,99467.78
2024-01-24T06:26:57.644Z,99480.97
2024-01-24T06:30:15.352Z,99493.41
2024-01-24T06:32:17.542Z,99524.50
2024-01-24T06:34:47.609Z,99544.00
2024-01-24T06:37:17.894Z,99548.44
2024-01-24T06:39:48.044Z,99555.41
2024-01-24T06:42:22.577Z,99580.81
2024-01-24T06:44:52.680Z,99584.47
2024-01-24T06:47:22.729Z,99613.69
2024-01-24T06:49:52.884Z,99623.19
2024-01-24T06:52:22.981Z,99626.75
2024-01-24T06:54:53.082Z,99633.81
2024-01-24T06:57:25.856Z,99652.19
2024-01-24T06:59:56.340Z,99663.34
2024-01-24T07:02:27.671Z,99672.78
2024-01-24T07:04:57.857Z,99702.81
2024-01-24T07:07:28.542Z,99712.81
2024-01-24T07:09:58.737Z,99719.94
2024-01-24T07:12:31.733Z,99708.66
2024-01-24T07:15:01.807Z,99721.94
2024-01-24T07:17:31.867Z,99721.75
2024-01-24T07:20:02.266Z,99731.34
2024-01-24T07:22:32.805Z,99746.09
2024-01-24T07:25:03.514Z,99761.00
2024-01-24T07:27:37.062Z,99791.75
2024-01-24T07:30:08.275Z,99801.25
2024-01-24T07:32:42.441Z,99802.38
2024-01-24T07:35:13.497Z,99829.31
2024-01-24T07:37:45.085Z,99838.91
2024-01-24T07:40:16.053Z,99850.31
2024-01-24T07:42:49.472Z,99865.25
2024-01-24T07:45:21.276Z,99874.94
2024-01-24T07:47:51.817Z,99884.63
2024-01-24T07:50:22.826Z,99883.13
2024-01-24T07:52:53.474Z,99897.97
2024-01-24T07:55:28.685Z,99899.88
2024-01-24T07:58:10.027Z,99919.28
2024-01-24T08:00:43.042Z,99936.84
2024-01-24T08:03:14.111Z,99941.28
2024-01-24T08:05:45.164Z,99957.19
2024-01-24T08:08:15.828Z,99950.31
2024-01-24T08:10:46.141Z,99980.19
2024-01-24T08:13:19.080Z,99994.31
2024-01-24T08:15:50.323Z,100001.34
2024-01-24T08:18:20.631Z,100020.00
2024-01-24T08:20:51.736Z,100013.88
2024-01-24T08:23:26.505Z,100030.59
2024-01-24T08:25:59.276Z,100045.47
2024-01-24T08:28:32.072Z,100045.91
2024-01-24T08:31:02.404Z,100068.59
2024-01-24T08:33:34.149Z,100085.31
2024-01-24T08:36:04.489Z,100087.94
2024-01-24T08:38:36.974Z,100092.47
2024-01-24T08:41:08.816Z,100092.53
2024-01-24T08:43:41.549Z,100094.25
2024-01-24T08:46:11.741Z,100098.59
2024-01-24T08:48:41.960Z,100112.78
2024-01-24T08:51:12.654Z,100129.50
2024-01-24T08:53:42.942Z,100147.94
2024-01-24T08:56:16.178Z,100162.03
2024-01-24T08:58:49.138Z,100180.41
2024-01-24T09:01:20.219Z,100185.13
2024-01-24T09:03:52.307Z,100193.63
2024-01-24T09:06:24.379Z,100214.69
2024-01-24T09:08:55.909Z,100233.22
2024-01-24T09:11:31.916Z,100244.63
2024-01-24T09:14:11.134Z,100251.91
2024-01-24T09:16:41.985Z,100260.47
2024-01-24T09:19:14.325Z,100283.31
2024-01-24T09:21:45.424Z,100295.72
2024-01-24T09:24:16.052Z,100295.72
2024-01-24T09:26:49.314Z,100315.03
2024-01-24T09:29:23.367Z,100323.84
2024-01-24T09:31:54.145Z,100349.34
2024-01-24T09:34:25.307Z,100354.69
2024-01-24T09:36:55.711Z,100347.63
2024-01-24T09:39:26.888Z,100358.03
2024-01-24T09:41:59.612Z,100373.72
2024-01-24T09:44:35.949Z,100375.44
2024-01-24T09:47:06.573Z,100387.84
2024-01-24T09:49:39.833Z,100385.13
2024-01-24T09:52:12.040Z,100397.44
2024-01-24T09:54:42.754Z,100411.63
2024-01-24T09:57:14.632Z,100412.47
2024-01-24T09:59:47.395Z,100422.09
2024-01-24T10:02:19.958Z,100415.19
2024-01-24T10:04:52.501Z,100424.78
2024-01-24T10:07:28.506Z,100440.59
2024-01-24T10:10:10.670Z,100446.78
2024-01-24T10:12:42.227Z,100442.44
2024-01-24T10:15:17.471Z,100446.78
2024-01-24T10:17:48.619Z,100433.69
2024-01-24T10:20:19.075Z,100445.16
2024-01-24T10:22:52.121Z,100446.09
2024-01-24T10:25:22.914Z,100453.06
2024-01-24T10:27:53.495Z,100461.03
2024-01-24T10:30:29.540Z,100461.03
2024-01-24T10:33:00.041Z,100462.81
2024-01-24T10:35:30.820Z,100477.75
2024-01-24T10:38:01.269Z,100480.38
2024-01-24T10:40:32.181Z,100497.13
2024-01-24T10:43:07.437Z,100504.06
2024-01-24T10:45:41.810Z,100528.63
2024-01-24T10:48:12.918Z,100526.09
2024-01-24T10:50:44.341Z,100534.00
2024-01-24T10:53:16.463Z,100546.22
2024-01-24T10:55:47.325Z,100551.47
2024-01-24T10:58:17.820Z,100547.16
2024-01-24T11:00:54.521Z,100563.72
2024-01-24T11:03:26.754Z,100563.72
2024-01-24T11:06:02.346Z,100562.00
2024-01-24T11:08:40.514Z,100577.81
2024-01-24T11:11:18.386Z,100584.88
2024-01-24T11:13:48.800Z,100605.94
2024-01-24T11:16:41.382Z,100620.94
2024-01-24T11:19:25.282Z,100627.16
2024-01-24T11:21:57.197Z,100643.00
2024-01-24T11:24:42.260Z,100665.88
2024-01-24T11:27:28.060Z,100682.59
2024-01-24T11:29:59.580Z,100697.47
2024-01-24T11:32:44.899Z,100721.19
2024-01-24T11:35:33.136Z,100729.91
2024-01-24T11:38:16.317Z,100743.88
2024-01-24T11:40:57.326Z,100731.63
2024-01-24T11:43:29.828Z,100749.16
2024-01-24T11:46:03.222Z,100743.03
2024-01-24T11:48:34.411Z,100746.53
2024-01-24T11:51:08.245Z,100740.31
2024-01-24T11:53:41.554Z,100746.53
2024-01-24T11:56:16.148Z,100748.22
2024-01-24T11:58:50.022Z,100740.31
2024-01-24T12:01:20.769Z,100762.25
2024-01-24T12:03:52.819Z,100762.25
2024-01-24T12:06:23.620Z,100760.38
2024-01-24T12:08:58.453Z,100769.94
2024-01-24T12:11:34.800Z,100750.50
2024-01-24T12:14:06.688Z,100761.91
2024-01-24T12:16:40.932Z,100767.91
2024-01-24T12:19:12.922Z,100785.34
2024-01-24T12:21:46.693Z,100799.28
2024-01-24T12:24:19.948Z,100794.81
2024-01-24T12:26:53.978Z,100806.28
2024-01-24T12:29:24.969Z,100818.53
2024-01-24T12:31:55.849Z,100824.59
2024-01-24T12:34:28.458Z,100835.91
2024-01-24T12:36:59.440Z,100825.38
2024-01-24T12:39:35.005Z,100829.75
2024-01-24T12:42:06.240Z,100835.84
2024-01-24T12:44:37.220Z,100842.75
2024-01-24T12:47:08.876Z,100863.81
2024-01-24T12:49:39.753Z,100877.81
2024-01-24T12:52:12.253Z,100884.25
2024-01-24T12:54:45.792Z,100917.38
2024-01-24T12:57:16.480Z,100930.69
2024-01-24T12:59:47.283Z,100959.66
2024-01-24T13:02:18.608Z,100969.22
2024-01-24T13:04:52.893Z,100991.25
2024-01-24T13:07:24.059Z,100988.47
2024-01-24T13:10:00.846Z,100990.25
2024-01-24T13:12:34.760Z,101017.38
2024-01-24T13:15:06.421Z,100999.84
2024-01-24T13:17:38.003Z,101013.28
2024-01-24T13:20:12.456Z,101012.63
2024-01-24T13:22:43.116Z,101024.00
2024-01-24T13:25:20.194Z,101021.25
2024-01-24T13:27:54.181Z,101017.91
2024-01-24T13:30:25.300Z,101020.56
2024-01-24T13:32:56.283Z,101031.13
2024-01-24T13:35:29.331Z,101013.47
2024-01-24T13:38:03.086Z,101015.94
2024-01-24T13:40:37.147Z,101011.69
2024-01-24T13:43:08.476Z,101000.13
2024-01-24T13:45:42.227Z,101008.81
2024-01-24T13:48:14.995Z,100998.41
2024-01-24T13:50:45.839Z,101001.00
2024-01-24T13:53:16.639Z,101019.34
2024-01-24T13:55:50.082Z,101020.25
2024-01-24T13:58:22.330Z,101033.38
2024-01-24T14:00:54.215Z,101043.06
2024-01-24T14:03:25.661Z,101051.84
2024-01-24T14:05:56.329Z,101061.44
2024-01-24T14:08:27.240Z,101071.06
2024-01-24T14:11:00.595Z,101081.53
2024-01-24T14:13:31.125Z,101086.75
2024-01-24T14:16:03.177Z,101091.41
2024-01-24T14:18:39.496Z,101100.28
2024-01-24T14:21:10.454Z,101104.75
2024-01-24T14:23:44.622Z,101108.38
2024-01-24T14:26:18.695Z,101106.72
2024-01-24T14:28:51.068Z,101117.38
2024-01-24T14:31:21.730Z,101124.38
2024-01-24T14:33:52.675Z,101127.91
2024-01-24T14:36:23.145Z,101131.53
2024-01-24T14:38:53.615Z,101128.03
2024-01-24T14:41:28.722Z,101136.88
2024-01-24T14:43:59.706Z,101139.53
2024-01-24T14:46:30.589Z,101147.31
2024-01-24T14:49:01.268Z,101153.50
2024-01-24T14:51:32.066Z,101137.75
2024-01-24T14:54:02.825Z,101145.66
2024-01-24T14:56:36.030Z,101142.47
2024-01-24T14:59:06.756Z,101161.59
2024-01-24T15:01:38.592Z,101163.44
2024-01-24T15:04:09.863Z,101170.47
2024-01-24T15:06:42.328Z,101176.59
2024-01-24T15:09:15.712Z,101174.00
2024-01-24T15:11:49.292Z,101181.97
2024-01-24T15:14:20.455Z,101181.97
2024-01-24T15:16:51.272Z,101183.81
2024-01-24T15:19:22.148Z,101200.50
2024-01-24T15:21:55.489Z,101191.16
2024-01-24T15:24:26.859Z,101204.09
2024-01-24T15:27:03.079Z,101206.72
2024-01-24T15:29:33.826Z,101203.22
2024-01-24T15:32:04.522Z,101196.22
2024-01-24T15:34:35.504Z,101207.66
2024-01-24T15:37:06.479Z,101204.19
2024-01-24T15:39:37.322Z,101201.56
2024-01-24T15:42:14.537Z,101197.19
2024-01-24T15:44:47.382Z,101200.72
2024-01-24T15:47:18.848Z,101206.00
2024-01-24T15:49:50.137Z,101225.47
2024-01-24T15:52:22.900Z,101231.63
2024-01-24T15:54:54.315Z,101228.31
2024-01-24T15:57:29.072Z,101252.69
2024-01-24T15:59:59.760Z,101272.06
2024-01-24T16:02:31.180Z,101280.94
2024-01-24T16:05:04.877Z,101294.13
2024-01-24T16:07:38.975Z,101303.81
2024-01-24T16:10:10.859Z,101308.22
2024-01-24T16:12:45.891Z,101311.75
2024-01-24T16:15:18.667Z,101313.44
2024-01-24T16:17:49.650Z,101316.13
2024-01-24T16:20:23.213Z,101319.66
2024-01-24T16:22:58.626Z,101329.28
2024-01-24T16:25:32.782Z,101320.53
2024-01-24T16:28:11.804Z,101331.00
2024-01-24T16:30:45.376Z,101323.31
2024-01-24T16:33:16.454Z,101338.09
2024-01-24T16:35:48.085Z,101342.50
2024-01-24T16:38:18.414Z,101339.91
2024-01-24T16:40:54.054Z,101353.09
2024-01-24T16:43:32.139Z,101357.50
2024-01-24T16:46:04.378Z,101359.22
2024-01-24T16:48:35.280Z,101368.03
2024-01-24T16:51:07.786Z,101360.19
2024-01-24T16:53:39.130Z,101372.56
2024-01-24T16:56:11.586Z,101381.25
2024-01-24T16:58:48.037Z,101376.94
2024-01-24T17:01:19.327Z,101377.84
2024-01-24T17:03:52.269Z,101394.56
2024-01-24T17:06:23.737Z,101395.44
2024-01-24T17:08:58.166Z,101403.28
2024-01-24T17:11:33.548Z,101401.53
2024-01-24T17:14:07.283Z,101393.88
2024-01-24T17:16:40.946Z,101413.38
2024-01-24T17:19:12.217Z,101408.94
2024-01-24T17:21:42.657Z,101412.31
2024-01-24T17:24:13.893Z,101427.25
2024-01-24T17:26:44.356Z,101421.25
2024-01-24T17:29:18.669Z,101442.13
2024-01-24T17:31:49.705Z,101449.16
2024-01-24T17:34:21.279Z,101447.97
2024-01-24T17:36:51.898Z,101457.59
2024-01-24T17:39:23.854Z,101462.00
2024-01-24T17:41:54.605Z,101470.75
2024-01-24T17:44:28.319Z,101467.25
2024-01-24T17:46:59.829Z,101472.50
2024-01-24T17:49:30.790Z,101464.53
2024-01-24T17:52:01.290Z,101461.88
2024-01-24T17:54:32.205Z,101468.72
2024-01-24T17:57:03.362Z,101476.69
2024-01-24T17:59:36.471Z,101479.44
2024-01-24T18:02:06.669Z,101491.38
2024-01-24T18:04:38.034Z,101494.72
2024-01-24T18:07:09.114Z,101502.09
2024-01-24T18:09:39.530Z,101501.69
2024-01-24T18:12:11.479Z,101505.69
2024-01-24T18:14:44.394Z,101510.69
2024-01-24T18:17:14.745Z,101518.47
2024-01-24T18:19:45.113Z,101521.84
2024-01-24T18:22:17.029Z,101524.53
2024-01-24T18:24:48.584Z,101531.22
2024-01-24T18:27:18.885Z,101540.69
2024-01-24T18:29:54.181Z,101545.78
2024-01-24T18:32:24.564Z,101553.94
2024-01-24T18:34:54.919Z,101562.00
2024-01-24T18:37:25.105Z,101564.50
2024-01-24T18:39:55.356Z,101563.19
2024-01-24T18:42:25.553Z,101564.41
2024-01-24T18:44:59.873Z,101562.91
2024-01-24T18:47:31.607Z,101555.34
2024-01-24T18:50:02.687Z,101556.72
2024-01-24T18:52:33.354Z,101554.59
2024-01-24T18:55:03.901Z,101552.03
2024-01-24T18:57:35.024Z,101563.97
2024-01-24T19:00:08.953Z,101557.66
2024-01-24T19:02:40.387Z,101556.38
2024-01-24T19:05:19.400Z,101556.09
2024-01-24T19:07:57.276Z,101562.81
2024-01-24T19:10:28.135Z,101567.78
2024-01-24T19:12:59.022Z,101573.00
2024-01-24T19:15:33.610Z,101576.88
2024-01-24T19:18:14.248Z,101575.00
2024-01-24T19:20:48.095Z,101568.53
2024-01-24T19:23:20.387Z,101568.25
2024-01-24T19:25:52.852Z,101584.84
2024-01-24T19:28:25.799Z,101584.47
2024-01-24T19:31:05.091Z,101599.34
2024-01-24T19:33:37.295Z,101595.69
2024-01-24T19:36:08.408Z,101592.13
2024-01-24T19:38:39.742Z,101598.72
2024-01-24T19:41:10.640Z,101600.28
2024-01-24T19:43:41.806Z,101604.66
2024-01-24T19:46:16.795Z,101598.97
2024-01-24T19:48:48.406Z,101599.69
2024-01-24T19:51:19.412Z,101593.13
2024-01-24T19:53:54.714Z,101595.31
2024-01-24T19:56:25.041Z,101603.44
2024-01-24T19:58:58.398Z,101604.16
2024-01-24T20:01:31.870Z,101612.81
2024-01-24T20:04:02.729Z,101618.34
2024-01-24T20:06:33.546Z,101635.78
2024-01-24T20:09:04.788Z,101637.63
2024-01-24T20:11:37.874Z,101639.72
2024-01-24T20:14:10.077Z,101643.41
2024-01-24T20:16:44.816Z,101646.94
2024-01-24T20:19:17.186Z,101650.13
2024-01-24T20:21:47.879Z,101660.22
2024-01-24T20:24:21.131Z,101664.09
2024-01-24T20:26:56.007Z,101648.00
2024-01-24T20:29:37.223Z,101656.47
2024-01-24T20:32:11.896Z,101661.78
2024-01-24T20:34:45.906Z,101657.28
2024-01-24T20:37:19.592Z,101657.38
2024-01-24T20:39:51.193Z,101657.16
2024-01-24T20:42:28.829Z,101670.06
2024-01-24T20:45:02.086Z,101675.06
2024-01-24T20:47:37.269Z,101677.97
2024-01-24T20:50:15.295Z,101685.13
2024-01-24T20:52:48.426Z,101694.59
2024-01-24T20:55:19.946Z,101694.31
2024-01-24T20:57:50.954Z,101697.03
2024-01-24T21:00:24.605Z,101693.72
2024-01-24T21:02:59.764Z,101698.91
2024-01-24T21:05:32.269Z,101710.16
2024-01-24T21:08:04.538Z,101707.63
2024-01-24T21:10:41.999Z,101708.53
2024-01-24T21:13:20.061Z,101718.34
2024-01-24T21:15:51.376Z,101724.81
2024-01-24T21:18:28.616Z,101725.84
2024-01-24T21:21:02.820Z,101730.94
2024-01-24T21:23:36.256Z,101736.56
2024-01-24T21:26:08.607Z,101748.31
2024-01-24T21:28:41.347Z,101739.06
2024-01-24T21:31:13.351Z,101758.28
2024-01-24T21:33:47.566Z,101769.03
2024-01-24T21:36:19.790Z,101772.47
2024-01-24T21:38:54.869Z,101771.69
2024-01-24T21:41:29.958Z,101768.88
2024-01-24T21:44:01.468Z,101773.41
2024-01-24T21:46:32.749Z,101775.19
2024-01-24T21:49:08.600Z,101770.97
2024-01-24T21:51:39.374Z,101780.31
2024-01-24T21:54:10.714Z,101790.03
2024-01-24T21:56:42.360Z,101782.78
2024-01-24T21:59:13.829Z,101777.13
2024-01-24T22:01:44.694Z,101768.38
2024-01-24T22:04:19.332Z,101765.94
2024-01-24T22:06:50.269Z,101768.63
2024-01-24T22:09:21.287Z,101751.81
2024-01-24T22:11:51.816Z,101758.16
2024-01-24T22:14:22.469Z,101772.47
2024-01-24T22:16:53.868Z,101785.84
2024-01-24T22:19:28.471Z,101796.53
2024-01-24T22:21:59.000Z,101810.00
2024-01-24T22:24:31.089Z,101806.72
2024-01-24T22:27:02.120Z,101804.06
2024-01-24T22:29:33.085Z,101811.41
2024-01-24T22:32:04.793Z,101807.34
2024-01-24T22:34:38.364Z,101800.41
2024-01-24T22:37:09.208Z,101805.94
2024-01-24T22:39:40.226Z,101810.38
2024-01-24T22:42:10.695Z,101820.28
2024-01-24T22:44:43.493Z,101824.16
2024-01-24T22:47:14.542Z,101819.84
2024-01-24T22:49:48.115Z,101812.16
2024-01-24T22:52:18.936Z,101806.00
2024-01-24T22:54:49.963Z,101799.28
2024-01-24T22:57:20.544Z,101799.63
2024-01-24T22:59:51.464Z,101802.56
2024-01-24T23:02:21.987Z,101807.94
2024-01-24T23:04:56.243Z,101814.31
2024-01-24T23:07:27.170Z,101817.38
2024-01-24T23:09:57.885Z,101806.09
2024-01-24T23:12:28.592Z,101801.00
2024-01-24T23:14:58.984Z,101803.06
2024-01-24T23:17:29.380Z,101809.41
2024-01-24T23:20:04.573Z,101821.16
2024-01-24T23:22:35.689Z,101831.91
2024-01-24T23:25:06.711Z,101825.78
2024-01-24T23:27:38.704Z,101822.56
2024-01-24T23:30:10.933Z,101827.25
2024-01-24T23:32:41.470Z,101837.00
2024-01-24T23:35:15.454Z,101830.22
2024-01-24T23:37:46.344Z,101840.13
2024-01-24T23:40:17.872Z,101839.50
2024-01-24T23:42:48.925Z,101826.31
2024-01-24T23:45:19.293Z,101829.31
2024-01-24T23:47:49.673Z,101826.75
2024-01-24T23:50:24.706Z,101826.06
2024-01-24T23:52:58.913Z,101839.38
2024-01-24T23:55:30.073Z,101834.22
2024-01-24T23:58:00.732Z,101840.50
